sensor_id;sensor_type;location;lat;lon;timestamp;P1;durP1;ratioP1;P2;durP2;ratioP2
40997;SDS011;26740;45.944;12.480;2023-01-30T00:00:22;49.88;;;20.77;;
40997;SDS011;26740;45.944;12.480;2023-01-30T00:02:48;44.13;;;19.67;;
40997;SDS011;26740;45.944;12.480;2023-01-30T00:05:13;45.35;;;19.42;;
40997;SDS011;26740;45.944;12.480;2023-01-30T00:07:39;51.22;;;23.17;;
40997;SDS011;26740;45.944;12.480;2023-01-30T00:10:05;46.38;;;20.63;;
40997;SDS011;26740;45.944;12.480;2023-01-30T00:12:31;48.83;;;20.33;;
40997;SDS011;26740;45.944;12.480;2023-01-30T00:14:56;38.95;;;18.45;;
40997;SDS011;26740;45.944;12.480;2023-01-30T00:17:22;40.97;;;18.10;;
40997;SDS011;26740;45.944;12.480;2023-01-30T00:19:47;43.03;;;17.13;;
40997;SDS011;26740;45.944;12.480;2023-01-30T00:22:13;37.58;;;17.80;;
40997;SDS011;26740;45.944;12.480;2023-01-30T00:24:39;38.10;;;19.30;;
40997;SDS011;26740;45.944;12.480;2023-01-30T00:27:04;43.58;;;18.98;;
40997;SDS011;26740;45.944;12.480;2023-01-30T00:29:30;46.78;;;19.33;;
40997;SDS011;26740;45.944;12.480;2023-01-30T00:31:55;51.70;;;21.27;;
40997;SDS011;26740;45.944;12.480;2023-01-30T00:34:21;39.13;;;19.35;;
40997;SDS011;26740;45.944;12.480;2023-01-30T00:36:47;47.05;;;20.17;;
40997;SDS011;26740;45.944;12.480;2023-01-30T00:39:12;41.30;;;19.23;;
40997;SDS011;26740;45.944;12.480;2023-01-30T00:41:38;46.13;;;19.83;;
40997;SDS011;26740;45.944;12.480;2023-01-30T00:44:22;44.53;;;20.20;;
40997;SDS011;26740;45.944;12.480;2023-01-30T00:47:06;43.70;;;19.70;;
40997;SDS011;26740;45.944;12.480;2023-01-30T00:49:33;53.47;;;21.23;;
40997;SDS011;26740;45.944;12.480;2023-01-30T00:51:59;48.90;;;19.48;;
40997;SDS011;26740;45.944;12.480;2023-01-30T00:54:25;42.22;;;18.33;;
40997;SDS011;26740;45.944;12.480;2023-01-30T00:56:51;49.67;;;19.10;;
40997;SDS011;26740;45.944;12.480;2023-01-30T00:59:17;40.33;;;18.50;;
40997;SDS011;26740;45.944;12.480;2023-01-30T01:01:43;46.08;;;20.80;;
40997;SDS011;26740;45.944;12.480;2023-01-30T01:04:09;45.53;;;19.38;;
40997;SDS011;26740;45.944;12.480;2023-01-30T01:06:37;48.65;;;22.15;;
40997;SDS011;26740;45.944;12.480;2023-01-30T01:09:03;41.53;;;18.55;;
40997;SDS011;26740;45.944;12.480;2023-01-30T01:11:30;48.08;;;20.15;;
40997;SDS011;26740;45.944;12.480;2023-01-30T01:13:57;46.85;;;22.10;;
40997;SDS011;26740;45.944;12.480;2023-01-30T01:16:25;49.63;;;20.52;;
40997;SDS011;26740;45.944;12.480;2023-01-30T01:18:52;42.40;;;18.75;;
40997;SDS011;26740;45.944;12.480;2023-01-30T01:21:19;41.67;;;18.65;;
40997;SDS011;26740;45.944;12.480;2023-01-30T01:23:52;45.15;;;18.70;;
40997;SDS011;26740;45.944;12.480;2023-01-30T01:26:19;45.17;;;19.50;;
40997;SDS011;26740;45.944;12.480;2023-01-30T01:28:45;47.00;;;20.55;;
40997;SDS011;26740;45.944;12.480;2023-01-30T01:31:11;46.28;;;18.92;;
40997;SDS011;26740;45.944;12.480;2023-01-30T01:33:38;44.55;;;18.33;;
40997;SDS011;26740;45.944;12.480;2023-01-30T01:36:04;44.50;;;17.77;;
40997;SDS011;26740;45.944;12.480;2023-01-30T01:38:31;47.42;;;19.98;;
40997;SDS011;26740;45.944;12.480;2023-01-30T01:40:56;47.97;;;19.23;;
40997;SDS011;26740;45.944;12.480;2023-01-30T01:43:37;46.05;;;19.33;;
40997;SDS011;26740;45.944;12.480;2023-01-30T01:46:23;45.08;;;19.73;;
40997;SDS011;26740;45.944;12.480;2023-01-30T01:48:54;39.25;;;18.75;;
40997;SDS011;26740;45.944;12.480;2023-01-30T01:51:33;44.50;;;18.35;;
40997;SDS011;26740;45.944;12.480;2023-01-30T01:54:07;41.15;;;16.45;;
40997;SDS011;26740;45.944;12.480;2023-01-30T01:56:38;41.70;;;18.17;;
40997;SDS011;26740;45.944;12.480;2023-01-30T01:59:09;43.35;;;18.63;;
40997;SDS011;26740;45.944;12.480;2023-01-30T02:01:45;40.25;;;17.70;;
40997;SDS011;26740;45.944;12.480;2023-01-30T02:04:12;46.33;;;19.20;;
40997;SDS011;26740;45.944;12.480;2023-01-30T02:06:38;44.78;;;17.73;;
40997;SDS011;26740;45.944;12.480;2023-01-30T02:09:07;43.03;;;18.30;;
40997;SDS011;26740;45.944;12.480;2023-01-30T02:11:40;49.25;;;19.17;;
40997;SDS011;26740;45.944;12.480;2023-01-30T02:14:11;58.58;;;19.73;;
40997;SDS011;26740;45.944;12.480;2023-01-30T02:16:40;37.05;;;17.00;;
40997;SDS011;26740;45.944;12.480;2023-01-30T02:19:14;37.30;;;17.27;;
40997;SDS011;26740;45.944;12.480;2023-01-30T02:22:07;34.92;;;15.55;;
40997;SDS011;26740;45.944;12.480;2023-01-30T02:33:19;37.92;;;15.82;;
40997;SDS011;26740;45.944;12.480;2023-01-30T02:41:32;35.33;;;16.00;;
40997;SDS011;26740;45.944;12.480;2023-01-30T02:44:29;39.78;;;16.00;;
40997;SDS011;26740;45.944;12.480;2023-01-30T02:49:38;45.42;;;17.58;;
40997;SDS011;26740;45.944;12.480;2023-01-30T02:52:09;36.60;;;15.55;;
40997;SDS011;26740;45.944;12.480;2023-01-30T02:54:37;43.10;;;15.90;;
40997;SDS011;26740;45.944;12.480;2023-01-30T02:57:02;42.42;;;17.67;;
40997;SDS011;26740;45.944;12.480;2023-01-30T02:59:36;34.22;;;14.95;;
40997;SDS011;26740;45.944;12.480;2023-01-30T03:02:15;36.10;;;16.02;;
40997;SDS011;26740;45.944;12.480;2023-01-30T03:10:42;36.60;;;16.17;;
40997;SDS011;26740;45.944;12.480;2023-01-30T03:18:42;41.22;;;17.20;;
40997;SDS011;26740;45.944;12.480;2023-01-30T03:21:09;35.40;;;14.57;;
40997;SDS011;26740;45.944;12.480;2023-01-30T03:23:36;41.38;;;16.75;;
40997;SDS011;26740;45.944;12.480;2023-01-30T03:26:05;42.42;;;16.58;;
40997;SDS011;26740;45.944;12.480;2023-01-30T03:28:34;34.08;;;15.77;;
40997;SDS011;26740;45.944;12.480;2023-01-30T03:31:01;40.10;;;16.63;;
40997;SDS011;26740;45.944;12.480;2023-01-30T03:33:27;36.92;;;14.93;;
40997;SDS011;26740;45.944;12.480;2023-01-30T03:35:53;35.10;;;15.00;;
40997;SDS011;26740;45.944;12.480;2023-01-30T03:38:18;33.40;;;14.57;;
40997;SDS011;26740;45.944;12.480;2023-01-30T03:40:44;34.08;;;14.70;;
40997;SDS011;26740;45.944;12.480;2023-01-30T03:43:10;34.15;;;14.63;;
40997;SDS011;26740;45.944;12.480;2023-01-30T03:45:36;30.50;;;13.05;;
40997;SDS011;26740;45.944;12.480;2023-01-30T03:48:01;37.28;;;16.20;;
40997;SDS011;26740;45.944;12.480;2023-01-30T03:50:27;35.47;;;14.75;;
40997;SDS011;26740;45.944;12.480;2023-01-30T03:52:53;33.45;;;13.68;;
40997;SDS011;26740;45.944;12.480;2023-01-30T03:55:19;34.50;;;13.88;;
40997;SDS011;26740;45.944;12.480;2023-01-30T03:57:44;36.40;;;15.75;;
40997;SDS011;26740;45.944;12.480;2023-01-30T04:00:10;33.58;;;14.77;;
40997;SDS011;26740;45.944;12.480;2023-01-30T04:02:36;35.95;;;14.98;;
40997;SDS011;26740;45.944;12.480;2023-01-30T04:05:03;39.88;;;16.20;;
40997;SDS011;26740;45.944;12.480;2023-01-30T04:07:29;37.28;;;15.15;;
40997;SDS011;26740;45.944;12.480;2023-01-30T04:09:55;38.58;;;14.57;;
40997;SDS011;26740;45.944;12.480;2023-01-30T04:12:20;34.47;;;15.55;;
40997;SDS011;26740;45.944;12.480;2023-01-30T04:14:46;35.85;;;13.88;;
40997;SDS011;26740;45.944;12.480;2023-01-30T04:17:11;39.90;;;16.13;;
40997;SDS011;26740;45.944;12.480;2023-01-30T04:19:37;31.92;;;14.32;;
40997;SDS011;26740;45.944;12.480;2023-01-30T04:22:03;32.80;;;14.50;;
40997;SDS011;26740;45.944;12.480;2023-01-30T04:24:28;40.35;;;14.85;;
40997;SDS011;26740;45.944;12.480;2023-01-30T04:26:54;37.92;;;15.80;;
40997;SDS011;26740;45.944;12.480;2023-01-30T04:29:19;38.28;;;14.05;;
40997;SDS011;26740;45.944;12.480;2023-01-30T04:31:45;31.38;;;14.98;;
40997;SDS011;26740;45.944;12.480;2023-01-30T04:34:10;37.83;;;16.52;;
40997;SDS011;26740;45.944;12.480;2023-01-30T04:36:36;34.22;;;15.55;;
40997;SDS011;26740;45.944;12.480;2023-01-30T04:39:02;34.03;;;14.57;;
40997;SDS011;26740;45.944;12.480;2023-01-30T04:41:27;35.35;;;15.25;;
40997;SDS011;26740;45.944;12.480;2023-01-30T04:43:53;36.75;;;14.38;;
40997;SDS011;26740;45.944;12.480;2023-01-30T04:46:18;34.88;;;15.02;;
40997;SDS011;26740;45.944;12.480;2023-01-30T04:48:44;32.28;;;13.68;;
40997;SDS011;26740;45.944;12.480;2023-01-30T04:51:09;35.00;;;14.93;;
40997;SDS011;26740;45.944;12.480;2023-01-30T04:53:35;39.78;;;15.50;;
40997;SDS011;26740;45.944;12.480;2023-01-30T04:56:01;35.67;;;15.27;;
40997;SDS011;26740;45.944;12.480;2023-01-30T04:58:26;37.85;;;15.05;;
40997;SDS011;26740;45.944;12.480;2023-01-30T05:00:52;38.28;;;15.02;;
40997;SDS011;26740;45.944;12.480;2023-01-30T05:03:17;33.42;;;13.30;;
40997;SDS011;26740;45.944;12.480;2023-01-30T05:05:45;34.15;;;14.77;;
40997;SDS011;26740;45.944;12.480;2023-01-30T05:08:11;38.13;;;14.93;;
40997;SDS011;26740;45.944;12.480;2023-01-30T05:10:37;36.85;;;15.30;;
40997;SDS011;26740;45.944;12.480;2023-01-30T05:13:03;37.40;;;15.65;;
40997;SDS011;26740;45.944;12.480;2023-01-30T05:15:30;43.33;;;15.35;;
40997;SDS011;26740;45.944;12.480;2023-01-30T05:17:55;32.13;;;13.68;;
40997;SDS011;26740;45.944;12.480;2023-01-30T05:20:21;45.42;;;14.20;;
40997;SDS011;26740;45.944;12.480;2023-01-30T05:22:47;28.27;;;13.15;;
40997;SDS011;26740;45.944;12.480;2023-01-30T05:25:12;31.70;;;13.90;;
40997;SDS011;26740;45.944;12.480;2023-01-30T05:27:38;34.75;;;13.48;;
40997;SDS011;26740;45.944;12.480;2023-01-30T05:30:03;33.15;;;14.27;;
40997;SDS011;26740;45.944;12.480;2023-01-30T05:32:29;31.08;;;13.38;;
40997;SDS011;26740;45.944;12.480;2023-01-30T05:34:55;32.40;;;13.95;;
40997;SDS011;26740;45.944;12.480;2023-01-30T05:37:20;39.60;;;13.38;;
40997;SDS011;26740;45.944;12.480;2023-01-30T05:39:46;33.95;;;13.55;;
40997;SDS011;26740;45.944;12.480;2023-01-30T05:42:12;38.30;;;15.52;;
40997;SDS011;26740;45.944;12.480;2023-01-30T05:44:38;33.53;;;13.80;;
40997;SDS011;26740;45.944;12.480;2023-01-30T05:47:03;31.42;;;15.43;;
40997;SDS011;26740;45.944;12.480;2023-01-30T05:49:29;36.65;;;15.55;;
40997;SDS011;26740;45.944;12.480;2023-01-30T05:51:54;33.00;;;15.10;;
40997;SDS011;26740;45.944;12.480;2023-01-30T05:54:20;37.03;;;17.27;;
40997;SDS011;26740;45.944;12.480;2023-01-30T05:56:49;43.28;;;16.40;;
40997;SDS011;26740;45.944;12.480;2023-01-30T05:59:15;40.75;;;16.20;;
40997;SDS011;26740;45.944;12.480;2023-01-30T06:01:42;40.97;;;17.13;;
40997;SDS011;26740;45.944;12.480;2023-01-30T06:04:08;43.90;;;19.35;;
40997;SDS011;26740;45.944;12.480;2023-01-30T06:06:34;42.45;;;17.83;;
40997;SDS011;26740;45.944;12.480;2023-01-30T06:08:59;46.08;;;18.20;;
40997;SDS011;26740;45.944;12.480;2023-01-30T06:11:25;47.53;;;19.65;;
40997;SDS011;26740;45.944;12.480;2023-01-30T06:13:50;45.50;;;18.08;;
40997;SDS011;26740;45.944;12.480;2023-01-30T06:16:16;45.60;;;18.50;;
40997;SDS011;26740;45.944;12.480;2023-01-30T06:18:43;42.35;;;19.70;;
40997;SDS011;26740;45.944;12.480;2023-01-30T06:21:11;45.35;;;20.08;;
40997;SDS011;26740;45.944;12.480;2023-01-30T06:23:38;44.88;;;19.10;;
40997;SDS011;26740;45.944;12.480;2023-01-30T06:26:04;42.28;;;19.45;;
40997;SDS011;26740;45.944;12.480;2023-01-30T06:28:29;42.90;;;19.23;;
40997;SDS011;26740;45.944;12.480;2023-01-30T06:30:55;43.22;;;18.90;;
40997;SDS011;26740;45.944;12.480;2023-01-30T06:33:20;56.00;;;19.13;;
40997;SDS011;26740;45.944;12.480;2023-01-30T06:35:49;43.40;;;18.67;;
40997;SDS011;26740;45.944;12.480;2023-01-30T06:38:16;43.63;;;18.48;;
40997;SDS011;26740;45.944;12.480;2023-01-30T06:40:43;44.40;;;18.35;;
40997;SDS011;26740;45.944;12.480;2023-01-30T06:43:10;40.70;;;18.58;;
40997;SDS011;26740;45.944;12.480;2023-01-30T06:45:36;47.13;;;19.27;;
40997;SDS011;26740;45.944;12.480;2023-01-30T06:48:01;38.00;;;16.90;;
40997;SDS011;26740;45.944;12.480;2023-01-30T06:50:27;40.40;;;15.93;;
40997;SDS011;26740;45.944;12.480;2023-01-30T06:52:54;39.58;;;16.40;;
40997;SDS011;26740;45.944;12.480;2023-01-30T06:55:20;37.72;;;16.55;;
40997;SDS011;26740;45.944;12.480;2023-01-30T06:57:48;41.15;;;17.38;;
40997;SDS011;26740;45.944;12.480;2023-01-30T07:00:15;36.70;;;16.92;;
40997;SDS011;26740;45.944;12.480;2023-01-30T07:02:42;42.00;;;15.07;;
40997;SDS011;26740;45.944;12.480;2023-01-30T07:05:08;31.63;;;15.38;;
40997;SDS011;26740;45.944;12.480;2023-01-30T07:07:34;42.25;;;17.73;;
40997;SDS011;26740;45.944;12.480;2023-01-30T07:10:01;31.60;;;13.60;;
40997;SDS011;26740;45.944;12.480;2023-01-30T07:12:28;33.40;;;15.80;;
40997;SDS011;26740;45.944;12.480;2023-01-30T07:14:53;32.35;;;14.35;;
40997;SDS011;26740;45.944;12.480;2023-01-30T07:17:19;83.65;;;30.38;;
40997;SDS011;26740;45.944;12.480;2023-01-30T07:19:47;79.30;;;30.10;;
40997;SDS011;26740;45.944;12.480;2023-01-30T07:22:13;41.72;;;18.75;;
40997;SDS011;26740;45.944;12.480;2023-01-30T07:24:39;40.63;;;18.65;;
40997;SDS011;26740;45.944;12.480;2023-01-30T07:27:07;100.18;;;36.35;;
40997;SDS011;26740;45.944;12.480;2023-01-30T07:29:34;228.27;;;80.97;;
40997;SDS011;26740;45.944;12.480;2023-01-30T07:32:00;388.50;;;143.73;;
40997;SDS011;26740;45.944;12.480;2023-01-30T07:34:26;316.15;;;124.95;;
40997;SDS011;26740;45.944;12.480;2023-01-30T07:36:52;265.67;;;100.50;;
40997;SDS011;26740;45.944;12.480;2023-01-30T07:39:17;141.10;;;62.00;;
40997;SDS011;26740;45.944;12.480;2023-01-30T07:41:42;223.60;;;87.03;;
40997;SDS011;26740;45.944;12.480;2023-01-30T07:44:08;93.22;;;41.03;;
40997;SDS011;26740;45.944;12.480;2023-01-30T07:46:33;79.75;;;34.67;;
40997;SDS011;26740;45.944;12.480;2023-01-30T07:49:00;56.63;;;27.20;;
40997;SDS011;26740;45.944;12.480;2023-01-30T07:51:26;50.75;;;23.00;;
40997;SDS011;26740;45.944;12.480;2023-01-30T07:53:52;41.28;;;20.23;;
40997;SDS011;26740;45.944;12.480;2023-01-30T07:56:17;48.60;;;20.98;;
40997;SDS011;26740;45.944;12.480;2023-01-30T07:58:46;41.35;;;20.85;;
40997;SDS011;26740;45.944;12.480;2023-01-30T08:01:12;39.42;;;19.67;;
40997;SDS011;26740;45.944;12.480;2023-01-30T08:03:38;49.53;;;20.40;;
40997;SDS011;26740;45.944;12.480;2023-01-30T08:06:04;51.03;;;23.27;;
40997;SDS011;26740;45.944;12.480;2023-01-30T08:08:30;44.58;;;20.83;;
40997;SDS011;26740;45.944;12.480;2023-01-30T08:10:55;45.05;;;20.25;;
40997;SDS011;26740;45.944;12.480;2023-01-30T08:13:21;44.30;;;18.25;;
40997;SDS011;26740;45.944;12.480;2023-01-30T08:15:46;38.60;;;19.15;;
40997;SDS011;26740;45.944;12.480;2023-01-30T08:18:12;38.50;;;17.17;;
40997;SDS011;26740;45.944;12.480;2023-01-30T08:20:38;33.83;;;16.88;;
40997;SDS011;26740;45.944;12.480;2023-01-30T08:23:03;35.10;;;17.10;;
40997;SDS011;26740;45.944;12.480;2023-01-30T08:25:29;37.55;;;17.27;;
40997;SDS011;26740;45.944;12.480;2023-01-30T08:27:55;38.72;;;17.48;;
40997;SDS011;26740;45.944;12.480;2023-01-30T08:30:22;35.03;;;16.55;;
40997;SDS011;26740;45.944;12.480;2023-01-30T08:32:47;37.50;;;16.50;;
40997;SDS011;26740;45.944;12.480;2023-01-30T08:35:13;35.35;;;16.67;;
40997;SDS011;26740;45.944;12.480;2023-01-30T08:37:39;35.97;;;17.50;;
40997;SDS011;26740;45.944;12.480;2023-01-30T08:40:06;39.45;;;17.90;;
40997;SDS011;26740;45.944;12.480;2023-01-30T08:42:32;38.88;;;18.45;;
40997;SDS011;26740;45.944;12.480;2023-01-30T08:44:57;33.67;;;17.27;;
40997;SDS011;26740;45.944;12.480;2023-01-30T08:47:23;39.22;;;18.55;;
40997;SDS011;26740;45.944;12.480;2023-01-30T08:49:49;40.08;;;20.48;;
40997;SDS011;26740;45.944;12.480;2023-01-30T08:52:20;39.30;;;19.02;;
40997;SDS011;26740;45.944;12.480;2023-01-30T08:54:45;43.08;;;20.27;;
40997;SDS011;26740;45.944;12.480;2023-01-30T08:57:12;37.67;;;19.30;;
40997;SDS011;26740;45.944;12.480;2023-01-30T08:59:39;37.70;;;18.45;;
40997;SDS011;26740;45.944;12.480;2023-01-30T09:02:04;35.90;;;18.58;;
40997;SDS011;26740;45.944;12.480;2023-01-30T09:04:30;41.55;;;19.48;;
40997;SDS011;26740;45.944;12.480;2023-01-30T09:06:56;43.33;;;19.42;;
40997;SDS011;26740;45.944;12.480;2023-01-30T09:09:22;38.30;;;19.90;;
40997;SDS011;26740;45.944;12.480;2023-01-30T09:11:47;45.38;;;19.73;;
40997;SDS011;26740;45.944;12.480;2023-01-30T09:14:13;36.05;;;18.70;;
40997;SDS011;26740;45.944;12.480;2023-01-30T09:16:47;31.30;;;18.25;;
40997;SDS011;26740;45.944;12.480;2023-01-30T09:19:19;39.95;;;21.08;;
40997;SDS011;26740;45.944;12.480;2023-01-30T09:21:49;38.07;;;21.10;;
40997;SDS011;26740;45.944;12.480;2023-01-30T09:24:15;40.53;;;21.15;;
40997;SDS011;26740;45.944;12.480;2023-01-30T09:26:41;33.65;;;17.55;;
40997;SDS011;26740;45.944;12.480;2023-01-30T09:29:12;36.50;;;18.88;;
40997;SDS011;26740;45.944;12.480;2023-01-30T09:31:39;26.70;;;14.68;;
40997;SDS011;26740;45.944;12.480;2023-01-30T09:34:05;31.85;;;16.95;;
40997;SDS011;26740;45.944;12.480;2023-01-30T09:36:32;33.15;;;18.50;;
40997;SDS011;26740;45.944;12.480;2023-01-30T09:38:57;31.73;;;17.83;;
40997;SDS011;26740;45.944;12.480;2023-01-30T09:52:58;29.50;;;17.17;;
40997;SDS011;26740;45.944;12.480;2023-01-30T09:55:29;33.83;;;17.85;;
40997;SDS011;26740;45.944;12.480;2023-01-30T09:57:57;31.52;;;18.08;;
40997;SDS011;26740;45.944;12.480;2023-01-30T10:03:07;30.55;;;17.08;;
40997;SDS011;26740;45.944;12.480;2023-01-30T10:05:46;31.40;;;17.65;;
40997;SDS011;26740;45.944;12.480;2023-01-30T10:11:29;34.83;;;19.10;;
40997;SDS011;26740;45.944;12.480;2023-01-30T10:14:11;37.58;;;19.27;;
40997;SDS011;26740;45.944;12.480;2023-01-30T10:21:53;38.63;;;19.00;;
40997;SDS011;26740;45.944;12.480;2023-01-30T10:27:03;38.17;;;19.35;;
40997;SDS011;26740;45.944;12.480;2023-01-30T10:29:38;34.03;;;17.95;;
40997;SDS011;26740;45.944;12.480;2023-01-30T10:32:12;34.85;;;18.15;;
40997;SDS011;26740;45.944;12.480;2023-01-30T10:34:42;40.20;;;19.40;;
40997;SDS011;26740;45.944;12.480;2023-01-30T10:37:14;37.53;;;19.63;;
40997;SDS011;26740;45.944;12.480;2023-01-30T10:40:13;32.75;;;18.73;;
40997;SDS011;26740;45.944;12.480;2023-01-30T10:42:46;37.10;;;19.42;;
40997;SDS011;26740;45.944;12.480;2023-01-30T10:45:28;37.67;;;18.88;;
40997;SDS011;26740;45.944;12.480;2023-01-30T10:59:47;31.88;;;17.40;;
40997;SDS011;26740;45.944;12.480;2023-01-30T11:05:14;31.67;;;16.92;;
40997;SDS011;26740;45.944;12.480;2023-01-30T11:07:44;27.58;;;15.82;;
40997;SDS011;26740;45.944;12.480;2023-01-30T11:10:21;25.83;;;15.25;;
40997;SDS011;26740;45.944;12.480;2023-01-30T11:13:33;30.30;;;15.75;;
40997;SDS011;26740;45.944;12.480;2023-01-30T11:15:50;26.70;;;14.43;;
40997;SDS011;26740;45.944;12.480;2023-01-30T11:18:20;28.35;;;15.02;;
40997;SDS011;26740;45.944;12.480;2023-01-30T11:20:56;22.35;;;13.57;;
40997;SDS011;26740;45.944;12.480;2023-01-30T11:23:39;22.85;;;12.75;;
40997;SDS011;26740;45.944;12.480;2023-01-30T11:26:06;27.35;;;13.70;;
40997;SDS011;26740;45.944;12.480;2023-01-30T11:28:38;23.90;;;13.68;;
40997;SDS011;26740;45.944;12.480;2023-01-30T11:31:15;27.90;;;14.50;;
40997;SDS011;26740;45.944;12.480;2023-01-30T11:33:42;20.33;;;12.07;;
40997;SDS011;26740;45.944;12.480;2023-01-30T11:41:40;26.27;;;14.57;;
40997;SDS011;26740;45.944;12.480;2023-01-30T11:44:35;30.30;;;14.75;;
40997;SDS011;26740;45.944;12.480;2023-01-30T11:47:08;24.60;;;14.13;;
40997;SDS011;26740;45.944;12.480;2023-01-30T11:49:42;29.13;;;14.90;;
40997;SDS011;26740;45.944;12.480;2023-01-30T11:54:42;26.88;;;14.95;;
40997;SDS011;26740;45.944;12.480;2023-01-30T11:57:13;28.95;;;15.10;;
40997;SDS011;26740;45.944;12.480;2023-01-30T11:59:46;25.40;;;14.95;;
40997;SDS011;26740;45.944;12.480;2023-01-30T12:02:32;30.03;;;15.03;;
40997;SDS011;26740;45.944;12.480;2023-01-30T12:05:05;29.73;;;15.25;;
40997;SDS011;26740;45.944;12.480;2023-01-30T12:07:40;34.92;;;14.77;;
40997;SDS011;26740;45.944;12.480;2023-01-30T12:10:28;28.98;;;14.98;;
40997;SDS011;26740;45.944;12.480;2023-01-30T12:12:55;35.55;;;18.33;;
40997;SDS011;26740;45.944;12.480;2023-01-30T12:15:26;33.67;;;17.70;;
40997;SDS011;26740;45.944;12.480;2023-01-30T12:28:49;30.98;;;16.38;;
40997;SDS011;26740;45.944;12.480;2023-01-30T12:33:56;26.20;;;15.82;;
40997;SDS011;26740;45.944;12.480;2023-01-30T12:41:54;31.95;;;15.43;;
40997;SDS011;26740;45.944;12.480;2023-01-30T12:44:56;32.60;;;15.40;;
40997;SDS011;26740;45.944;12.480;2023-01-30T12:52:53;29.27;;;16.70;;
40997;SDS011;26740;45.944;12.480;2023-01-30T12:58:13;35.20;;;17.13;;
40997;SDS011;26740;45.944;12.480;2023-01-30T13:03:41;32.10;;;17.17;;
40997;SDS011;26740;45.944;12.480;2023-01-30T13:11:57;35.83;;;18.08;;
40997;SDS011;26740;45.944;12.480;2023-01-30T13:14:27;37.70;;;18.38;;
40997;SDS011;26740;45.944;12.480;2023-01-30T13:19:59;33.70;;;17.75;;
40997;SDS011;26740;45.944;12.480;2023-01-30T13:22:51;38.88;;;18.92;;
40997;SDS011;26740;45.944;12.480;2023-01-30T13:28:13;42.45;;;19.85;;
40997;SDS011;26740;45.944;12.480;2023-01-30T13:30:43;37.00;;;19.73;;
40997;SDS011;26740;45.944;12.480;2023-01-30T13:33:14;36.72;;;19.45;;
40997;SDS011;26740;45.944;12.480;2023-01-30T13:38:40;38.50;;;20.60;;
40997;SDS011;26740;45.944;12.480;2023-01-30T13:41:23;38.67;;;20.23;;
40997;SDS011;26740;45.944;12.480;2023-01-30T13:43:50;34.15;;;18.40;;
40997;SDS011;26740;45.944;12.480;2023-01-30T13:46:22;32.90;;;18.63;;
40997;SDS011;26740;45.944;12.480;2023-01-30T13:48:56;35.75;;;18.25;;
40997;SDS011;26740;45.944;12.480;2023-01-30T14:00:07;41.42;;;20.25;;
40997;SDS011;26740;45.944;12.480;2023-01-30T14:08:17;40.00;;;18.70;;
40997;SDS011;26740;45.944;12.480;2023-01-30T14:10:44;37.75;;;20.10;;
40997;SDS011;26740;45.944;12.480;2023-01-30T14:13:11;35.90;;;19.75;;
40997;SDS011;26740;45.944;12.480;2023-01-30T14:15:39;43.28;;;20.05;;
40997;SDS011;26740;45.944;12.480;2023-01-30T14:20:46;37.08;;;18.83;;
40997;SDS011;26740;45.944;12.480;2023-01-30T14:25:58;40.97;;;21.35;;
40997;SDS011;26740;45.944;12.480;2023-01-30T14:30:53;40.15;;;21.90;;
40997;SDS011;26740;45.944;12.480;2023-01-30T14:38:24;44.67;;;23.42;;
40997;SDS011;26740;45.944;12.480;2023-01-30T14:43:34;37.08;;;20.02;;
40997;SDS011;26740;45.944;12.480;2023-01-30T14:48:31;44.13;;;21.23;;
40997;SDS011;26740;45.944;12.480;2023-01-30T14:59:09;40.58;;;21.02;;
40997;SDS011;26740;45.944;12.480;2023-01-30T15:02:03;37.70;;;20.60;;
40997;SDS011;26740;45.944;12.480;2023-01-30T15:04:40;43.03;;;22.52;;
40997;SDS011;26740;45.944;12.480;2023-01-30T15:07:12;41.13;;;23.17;;
40997;SDS011;26740;45.944;12.480;2023-01-30T15:09:43;43.35;;;22.85;;
40997;SDS011;26740;45.944;12.480;2023-01-30T15:12:24;46.08;;;22.00;;
40997;SDS011;26740;45.944;12.480;2023-01-30T15:15:18;42.47;;;22.13;;
40997;SDS011;26740;45.944;12.480;2023-01-30T15:21:32;52.03;;;26.15;;
40997;SDS011;26740;45.944;12.480;2023-01-30T15:24:07;44.45;;;23.35;;
40997;SDS011;26740;45.944;12.480;2023-01-30T15:26:58;52.78;;;24.90;;
40997;SDS011;26740;45.944;12.480;2023-01-30T15:32:17;179.23;;;76.40;;
40997;SDS011;26740;45.944;12.480;2023-01-30T15:34:51;101.18;;;45.10;;
40997;SDS011;26740;45.944;12.480;2023-01-30T15:37:38;65.63;;;31.98;;
40997;SDS011;26740;45.944;12.480;2023-01-30T15:45:21;59.55;;;30.15;;
40997;SDS011;26740;45.944;12.480;2023-01-30T15:50:48;71.10;;;32.00;;
40997;SDS011;26740;45.944;12.480;2023-01-30T15:53:17;63.83;;;27.70;;
40997;SDS011;26740;45.944;12.480;2023-01-30T15:55:49;55.22;;;26.88;;
40997;SDS011;26740;45.944;12.480;2023-01-30T15:58:17;51.28;;;24.67;;
40997;SDS011;26740;45.944;12.480;2023-01-30T16:00:53;54.58;;;25.20;;
40997;SDS011;26740;45.944;12.480;2023-01-30T16:03:25;54.40;;;27.63;;
40997;SDS011;26740;45.944;12.480;2023-01-30T16:05:55;53.08;;;26.52;;
40997;SDS011;26740;45.944;12.480;2023-01-30T16:08:23;58.38;;;28.42;;
40997;SDS011;26740;45.944;12.480;2023-01-30T16:10:56;61.75;;;29.35;;
40997;SDS011;26740;45.944;12.480;2023-01-30T16:13:24;51.85;;;26.80;;
40997;SDS011;26740;45.944;12.480;2023-01-30T16:15:58;54.72;;;26.98;;
40997;SDS011;26740;45.944;12.480;2023-01-30T16:18:46;55.38;;;26.50;;
40997;SDS011;26740;45.944;12.480;2023-01-30T16:21:17;63.47;;;27.92;;
40997;SDS011;26740;45.944;12.480;2023-01-30T16:26:44;54.60;;;27.17;;
40997;SDS011;26740;45.944;12.480;2023-01-30T16:29:14;57.95;;;27.52;;
40997;SDS011;26740;45.944;12.480;2023-01-30T16:31:44;56.35;;;26.45;;
40997;SDS011;26740;45.944;12.480;2023-01-30T16:34:24;57.90;;;26.20;;
40997;SDS011;26740;45.944;12.480;2023-01-30T16:36:54;58.22;;;27.90;;
40997;SDS011;26740;45.944;12.480;2023-01-30T16:42:33;54.38;;;25.50;;
40997;SDS011;26740;45.944;12.480;2023-01-30T16:47:55;61.78;;;29.95;;
40997;SDS011;26740;45.944;12.480;2023-01-30T16:50:52;60.22;;;27.83;;
40997;SDS011;26740;45.944;12.480;2023-01-30T16:53:36;67.20;;;31.10;;
40997;SDS011;26740;45.944;12.480;2023-01-30T16:56:15;60.13;;;27.40;;
40997;SDS011;26740;45.944;12.480;2023-01-30T16:58:44;63.88;;;27.77;;
40997;SDS011;26740;45.944;12.480;2023-01-30T17:03:40;72.63;;;34.22;;
40997;SDS011;26740;45.944;12.480;2023-01-30T17:06:20;59.83;;;28.10;;
40997;SDS011;26740;45.944;12.480;2023-01-30T17:08:51;60.40;;;28.58;;
40997;SDS011;26740;45.944;12.480;2023-01-30T17:16:38;70.13;;;31.75;;
40997;SDS011;26740;45.944;12.480;2023-01-30T17:19:07;71.40;;;30.70;;
40997;SDS011;26740;45.944;12.480;2023-01-30T17:21:37;78.60;;;31.95;;
40997;SDS011;26740;45.944;12.480;2023-01-30T17:24:10;62.65;;;28.40;;
40997;SDS011;26740;45.944;12.480;2023-01-30T17:26:39;69.60;;;30.88;;
40997;SDS011;26740;45.944;12.480;2023-01-30T17:29:05;69.07;;;31.48;;
40997;SDS011;26740;45.944;12.480;2023-01-30T17:31:31;69.18;;;30.95;;
40997;SDS011;26740;45.944;12.480;2023-01-30T17:37:32;79.00;;;36.05;;